Time;durP1;ratioP1;P1;durP2;ratioP2;P2;SDS_P1;SDS_P2;PMS_P1;PMS_P2;Temp;Humidity;BMP_temperature;BMP_pressure;BME280_temperature;BME280_humidity;BME280_pressure;Samples;Min_cycle;Max_cycle;Signal;HPM_P1;HPM_P2
2022/12/14 00:01:26;;;;;;;27.50;24.35;;;;;;;15.13;97.14;99199.25;5060099;28;20131;-64
2022/12/14 00:03:55;;;;;;;26.58;23.88;;;;;;;15.15;97.42;99205.38;5068505;28;20052;-62
2022/12/14 00:06:27;;;;;;;31.65;24.10;;;;;;;15.10;97.74;99185.88;5072834;28;20081;-64
2022/12/14 00:08:57;;;;;;;31.35;24.92;;;;;;;15.17;98.16;99200.22;5071420;28;20048;-63
2022/12/14 00:11:24;;;;;;;29.60;24.10;;;;;;;15.14;98.29;99214.94;5071928;28;20053;-63
2022/12/14 00:13:56;;;;;;;33.92;25.17;;;;;;;15.17;98.31;99205.81;5072119;28;20048;-63
2022/12/14 00:16:26;;;;;;;25.83;23.15;;;;;;;15.06;98.05;99190.56;5072231;28;20053;-63
2022/12/14 00:18:55;;;;;;;50.85;45.63;;;;;;;15.16;98.21;99195.75;5072749;28;20507;-64
2022/12/14 00:21:23;;;;;;;33.67;24.05;;;;;;;15.14;98.57;99210.19;5071901;28;20125;-65
2022/12/14 00:23:51;;;;;;;35.35;24.98;;;;;;;15.17;98.45;99198.22;5071918;28;20061;-64
2022/12/14 00:26:21;;;;;;;35.63;23.85;;;;;;;15.15;98.41;99194.13;5071877;28;20036;-65
2022/12/14 00:28:49;;;;;;;37.97;26.17;;;;;;;15.15;98.12;99196.94;5070203;28;20048;-66
2022/12/14 00:31:16;;;;;;;27.52;24.70;;;;;;;15.14;98.35;99195.25;5070083;28;20055;-65
2022/12/14 00:33:44;;;;;;;38.38;25.70;;;;;;;15.16;98.56;99193.75;5051991;28;20060;-66
2022/12/14 00:36:11;;;;;;;35.38;23.50;;;;;;;15.16;98.17;99193.75;5071250;28;20041;-65
2022/12/14 00:38:39;;;;;;;35.58;25.38;;;;;;;15.17;98.29;99191.78;5069448;28;20123;-63
2022/12/14 00:41:06;;;;;;;40.50;24.05;;;;;;;15.20;98.25;99196.72;5071663;28;20051;-63
2022/12/14 00:43:34;;;;;;;34.22;23.90;;;;;;;15.18;98.60;99187.81;5071530;28;20062;-63
2022/12/14 00:46:01;;;;;;;37.50;26.02;;;;;;;15.23;98.71;99193.22;5070921;28;20415;-65
2022/12/14 00:48:28;;;;;;;33.65;24.83;;;;;;;15.23;98.14;99196.03;5065571;28;20091;-65
2022/12/14 00:50:55;;;;;;;30.27;24.08;;;;;;;15.22;98.19;99191.56;5057097;28;20101;-65
2022/12/14 00:53:24;;;;;;;32.95;24.25;;;;;;;15.23;98.18;99195.22;5070367;28;20067;-65
2022/12/14 00:55:51;;;;;;;38.90;24.17;;;;;;;15.15;98.22;99171.63;5070615;28;20071;-64
2022/12/14 00:58:21;;;;;;;27.58;24.45;;;;;;;15.21;98.24;99175.84;5070538;28;20049;-64
2022/12/14 01:00:59;;;;;;;27.05;23.88;;;;;;;15.17;98.29;99174.91;5052173;28;20044;-64
2022/12/14 01:03:26;;;;;;;34.72;24.73;;;;;;;15.16;98.31;99162.84;5073329;28;20057;-64
2022/12/14 01:05:53;;;;;;;25.75;23.15;;;;;;;15.15;98.48;99172.44;5073533;28;20457;-65
2022/12/14 01:08:21;;;;;;;35.50;25.70;;;;;;;15.19;98.34;99169.75;5058243;28;20056;-66
2022/12/14 01:10:47;;;;;;;28.17;24.73;;;;;;;15.22;98.22;99166.25;5074511;28;20056;-65
2022/12/14 01:13:14;;;;;;;33.70;24.15;;;;;;;15.26;98.07;99172.84;5074099;28;20064;-65
2022/12/14 01:15:41;;;;;;;32.53;22.90;;;;;;;15.27;98.05;99156.78;5071926;28;20056;-65
2022/12/14 01:18:08;;;;;;;24.70;22.30;;;;;;;15.24;98.32;99152.66;5073313;28;20052;-64
2022/12/14 01:20:35;;;;;;;32.17;24.88;;;;;;;15.24;98.09;99158.28;5075067;28;20048;-64
2022/12/14 01:23:01;;;;;;;35.60;25.30;;;;;;;15.27;97.89;99151.97;5074693;28;20056;-65
2022/12/14 01:25:28;;;;;;;29.23;22.30;;;;;;;15.30;98.08;99151.28;5075170;28;20044;-64
2022/12/14 01:27:55;;;;;;;27.05;23.35;;;;;;;15.29;97.56;99137.59;5074656;28;20051;-64
2022/12/14 01:30:22;;;;;;;27.60;24.10;;;;;;;15.27;97.88;99140.72;5075357;28;20391;-63
2022/12/14 01:32:48;;;;;;;30.58;23.95;;;;;;;15.28;97.71;99152.78;5056699;28;20053;-62
2022/12/14 01:35:16;;;;;;;22.65;20.63;;;;;;;15.26;98.23;99149.53;5074231;28;20071;-62
2022/12/14 01:37:43;;;;;;;41.65;38.10;;;;;;;15.26;98.25;99144.72;5075008;28;20048;-62
2022/12/14 01:40:10;;;;;;;26.48;22.88;;;;;;;15.24;97.75;99135.78;5074810;28;20052;-62
2022/12/14 01:42:37;;;;;;;37.53;25.33;;;;;;;15.27;97.75;99134.28;5056882;28;20052;-62
2022/12/14 01:45:04;;;;;;;25.00;21.90;;;;;;;15.25;97.73;99137.44;5074875;28;20063;-62
2022/12/14 01:47:41;;;;;;;25.25;22.95;;;;;;;15.26;97.41;99146.72;5053779;28;20045;-61
2022/12/14 01:50:17;;;;;;;56.63;52.38;;;;;;;15.12;97.23;99133.78;5074279;28;20052;-61
2022/12/14 01:52:47;;;;;;;27.73;25.58;;;;;;;14.87;97.58;99123.56;5074413;28;20052;-62
2022/12/14 01:55:17;;;;;;;29.38;26.67;;;;;;;14.70;98.01;99130.19;5071544;28;20052;-61
2022/12/14 01:57:47;;;;;;;32.67;24.52;;;;;;;14.63;97.98;99135.50;5071010;28;20047;-62
2022/12/14 02:00:15;;;;;;;25.58;23.55;;;;;;;14.60;98.65;99133.41;5073607;28;20060;-61
2022/12/14 02:02:50;;;;;;;29.33;26.77;;;;;;;14.67;98.44;99133.69;5070061;28;20410;-62
2022/12/14 02:05:20;;;;;;;31.25;25.70;;;;;;;14.83;98.75;99137.47;5073144;28;20423;-61
2022/12/14 02:07:49;;;;;;;29.20;25.15;;;;;;;14.85;98.87;99131.53;5047706;28;20041;-62
2022/12/14 02:10:16;;;;;;;26.73;24.25;;;;;;;14.83;98.60;99131.88;5072322;28;20055;-62
2022/12/14 02:12:51;;;;;;;28.80;25.83;;;;;;;14.84;98.21;99133.53;5074516;28;20059;-61
2022/12/14 02:15:18;;;;;;;41.33;26.35;;;;;;;14.79;98.53;99136.53;5071950;28;20055;-61
2022/12/14 02:17:46;;;;;;;28.33;24.13;;;;;;;14.77;98.06;99136.06;5073259;28;20442;-61
2022/12/14 02:20:14;;;;;;;27.25;24.33;;;;;;;14.72;98.17;99136.25;5074344;28;20487;-61
2022/12/14 02:22:52;;;;;;;29.33;26.05;;;;;;;14.74;98.44;99150.81;5073498;28;20063;-61
2022/12/14 02:25:56;;;;;;;37.65;25.63;;;;;;;14.68;98.00;99143.75;5073504;28;20047;-61
2022/12/14 02:28:46;;;;;;;30.60;27.20;;;;;;;14.77;98.42;99144.50;5074348;28;20063;-61
2022/12/14 02:31:36;;;;;;;49.10;30.98;;;;;;;14.70;98.21;99144.22;5047787;28;20411;-62
2022/12/14 02:34:09;;;;;;;;;;;;;;;14.54;99.05;99146.00;5071085;28;20052;-62
2022/12/14 02:36:38;;;;;;;30.40;25.73;;;;;;;14.71;98.73;99145.88;5074095;28;19920;-63
2022/12/14 02:39:27;;;;;;;32.42;25.25;;;;;;;14.65;98.38;99147.22;5072609;28;20136;-64
2022/12/14 02:42:07;;;;;;;29.38;24.52;;;;;;;14.66;98.08;99146.06;5056492;28;20053;-64
2022/12/14 02:44:41;;;;;;;32.92;24.25;;;;;;;14.62;98.05;99150.72;5073130;28;20450;-65
2022/12/14 02:47:32;;;;;;;29.10;26.35;;;;;;;14.69;98.38;99153.81;5069574;28;20384;-64
2022/12/14 02:50:24;;;;;;;26.90;23.83;;;;;;;14.56;97.66;99138.84;5073862;28;20407;-64
2022/12/14 02:53:17;;;;;;;29.00;22.65;;;;;;;14.56;97.61;99144.47;5072917;28;20059;-64
2022/12/14 02:55:52;;;;;;;26.88;24.35;;;;;;;14.52;98.04;99137.06;5073341;28;20061;-64
2022/12/14 02:58:26;;;;;;;28.27;23.80;;;;;;;14.58;97.59;99146.97;5071806;28;20052;-64
2022/12/14 03:00:55;;;;;;;26.65;24.15;;;;;;;14.59;97.88;99134.53;5070893;28;20060;-62
2022/12/14 03:03:22;;;;;;;28.08;25.05;;;;;;;14.60;97.78;99139.84;5072429;28;20360;-61
2022/12/14 03:06:13;;;;;;;25.85;23.58;;;;;;;14.50;97.12;99126.19;5072520;28;20098;-61
2022/12/14 03:08:43;;;;;;;25.45;23.00;;;;;;;14.45;97.11;99121.56;5070594;28;20054;-61
2022/12/14 03:11:19;;;;;;;26.58;23.67;;;;;;;14.39;96.65;99128.56;5073070;28;20047;-62
2022/12/14 03:14:01;;;;;;;25.60;23.15;;;;;;;14.28;96.49;99118.06;5064078;28;20127;-60
2022/12/14 03:16:30;;;;;;;39.92;36.17;;;;;;;14.29;96.90;99116.88;5072740;28;20108;-62
2022/12/14 03:19:16;;;;;;;24.97;23.03;;;;;;;14.21;96.54;99110.16;5073308;28;20076;-61
2022/12/14 03:21:50;;;;;;;24.10;21.98;;;;;;;14.16;96.73;99102.78;5072809;28;20301;-61
2022/12/14 03:24:31;;;;;;;26.42;23.08;;;;;;;14.16;96.32;99104.75;5072475;28;20044;-61
2022/12/14 03:27:19;;;;;;;24.75;22.35;;;;;;;14.17;96.40;99100.78;5071584;28;20047;-62
2022/12/14 03:29:55;;;;;;;23.70;21.85;;;;;;;14.25;96.27;99105.50;5066356;28;20048;-62
2022/12/14 03:32:24;;;;;;;25.33;23.20;;;;;;;14.26;96.38;99109.97;5072889;28;20099;-62
2022/12/14 03:34:59;;;;;;;25.55;22.13;;;;;;;14.25;96.33;99110.31;5070922;28;20045;-61
2022/12/14 03:37:35;;;;;;;25.40;22.10;;;;;;;14.23;95.96;99091.81;5054772;28;20497;-62
2022/12/14 03:40:06;;;;;;;23.00;21.38;;;;;;;14.22;95.92;99083.72;5072475;28;20045;-64
2022/12/14 03:43:01;;;;;;;23.55;21.52;;;;;;;14.11;94.70;99088.09;5054832;28;20060;-64
2022/12/14 03:45:53;;;;;;;22.55;21.20;;;;;;;14.03;95.58;99086.19;5069493;28;20554;-64
2022/12/14 03:48:35;;;;;;;21.85;20.65;;;;;;;13.88;95.13;99080.00;5069232;28;20048;-64
2022/12/14 03:51:14;;;;;;;22.05;20.58;;;;;;;13.78;95.43;99069.16;5073165;28;20056;-64
2022/12/14 03:53:59;;;;;;;23.80;21.97;;;;;;;13.63;95.63;99062.13;5068995;28;20056;-63
2022/12/14 03:56:44;;;;;;;24.38;22.10;;;;;;;13.68;96.07;99069.53;5071574;28;20049;-62
2022/12/14 03:59:33;;;;;;;23.88;22.05;;;;;;;13.63;96.21;99067.72;5064146;28;20046;-62
2022/12/14 04:02:06;;;;;;;25.88;23.70;;;;;;;13.69;96.41;99057.16;5071406;28;20048;-61
2022/12/14 04:04:46;;;;;;;24.95;22.80;;;;;;;13.69;96.99;99065.56;5071686;28;20044;-62
2022/12/14 04:07:16;;;;;;;23.80;21.88;;;;;;;13.71;96.94;99060.44;5067914;28;20055;-62
2022/12/14 04:09:55;;;;;;;23.75;21.98;;;;;;;13.73;96.95;99060.91;5071940;28;20048;-62
2022/12/14 04:21:10;;;;;;;23.67;21.85;;;;;;;13.68;97.31;99047.09;5071472;28;19920;-62
2022/12/14 04:26:39;;;;;;;24.70;22.45;;;;;;;13.75;97.51;99038.97;5071696;28;20052;-62
2022/12/14 04:32:05;;;;;;;25.08;23.10;;;;;;;13.78;97.66;99017.81;5070184;28;20051;-62
2022/12/14 04:34:34;;;;;;;23.52;22.02;;;;;;;13.84;97.48;99017.28;5055662;28;20049;-62
2022/12/14 04:37:07;;;;;;;25.67;23.65;;;;;;;13.80;97.54;99009.88;5071651;28;20086;-63
2022/12/14 04:39:44;;;;;;;26.30;23.90;;;;;;;13.82;97.25;99030.84;5069675;28;20053;-63
2022/12/14 04:42:15;;;;;;;25.65;23.90;;;;;;;13.82;97.56;99013.19;5072452;28;20052;-62
2022/12/14 04:44:50;;;;;;;32.25;24.40;;;;;;;13.83;97.48;99015.63;5070164;28;20044;-63
2022/12/14 04:47:18;;;;;;;27.65;24.80;;;;;;;13.90;97.30;99018.72;5069813;28;20058;-63
2022/12/14 04:50:01;;;;;;;26.33;24.17;;;;;;;13.97;98.00;99021.00;5059986;28;20055;-63
2022/12/14 04:52:43;;;;;;;27.13;25.10;;;;;;;14.05;97.86;99016.47;5070328;28;20416;-63
2022/12/14 04:55:19;;;;;;;24.70;22.30;;;;;;;14.06;97.64;99012.53;5066130;28;20044;-63
2022/12/14 04:58:04;;;;;;;24.75;22.95;;;;;;;13.98;97.45;99002.97;5071798;28;20045;-63
2022/12/14 05:00:36;;;;;;;24.73;22.33;;;;;;;14.06;97.51;99006.91;5068020;28;20044;-62
2022/12/14 05:03:12;;;;;;;25.50;22.95;;;;;;;14.07;97.65;99009.34;5071902;28;20059;-63
2022/12/14 05:06:05;;;;;;;29.63;26.42;;;;;;;14.10;97.32;99002.25;5068793;28;20075;-62
2022/12/14 05:08:50;;;;;;;30.55;26.08;;;;;;;14.07;97.42;98998.13;5063302;28;20048;-62
2022/12/14 05:11:17;;;;;;;28.67;24.52;;;;;;;14.22;97.59;99000.34;5048888;28;20052;-62
2022/12/14 05:14:11;;;;;;;24.13;22.23;;;;;;;14.21;97.46;98993.06;5055153;28;20564;-62
2022/12/14 05:16:37;;;;;;;24.17;22.23;;;;;;;14.29;97.38;98979.28;5071107;28;20051;-62
2022/12/14 05:19:09;;;;;;;27.52;24.83;;;;;;;14.36;97.55;99005.66;5070622;28;20094;-62
2022/12/14 05:21:48;;;;;;;27.38;24.52;;;;;;;14.43;97.34;99010.75;5070847;28;20041;-62
2022/12/14 05:24:16;;;;;;;25.70;23.20;;;;;;;14.43;97.23;98999.50;5069858;28;20053;-62
2022/12/14 05:26:43;;;;;;;26.40;23.52;;;;;;;14.48;97.05;99007.72;5034006;28;20100;-60
2022/12/14 05:29:10;;;;;;;28.20;23.70;;;;;;;14.55;97.11;99001.56;5067611;28;20047;-61
2022/12/14 05:31:38;;;;;;;25.77;23.58;;;;;;;14.49;96.91;98986.88;5071557;28;20384;-61
2022/12/14 05:34:05;;;;;;;25.83;23.67;;;;;;;14.60;97.18;99007.81;5069466;28;20052;-62
2022/12/14 05:36:32;;;;;;;29.88;23.55;;;;;;;14.62;97.15;98991.41;5070237;28;20044;-62
2022/12/14 05:38:59;;;;;;;26.38;23.88;;;;;;;14.64;96.90;98988.25;5071131;28;20448;-61
2022/12/14 05:41:26;;;;;;;27.38;22.13;;;;;;;14.73;96.84;98986.16;5070668;28;20063;-61
2022/12/14 05:43:53;;;;;;;25.13;22.92;;;;;;;14.71;96.50;98988.53;5070638;28;20048;-61
2022/12/14 05:46:20;;;;;;;28.27;23.17;;;;;;;14.72;96.57;98976.09;5070813;28;20487;-61
2022/12/14 05:48:47;;;;;;;25.77;23.08;;;;;;;14.73;96.60;98986.16;5074778;28;20041;-61
2022/12/14 05:51:15;;;;;;;26.23;24.23;;;;;;;14.75;96.54;98971.78;5073520;28;20051;-62
2022/12/14 05:53:42;;;;;;;26.02;23.13;;;;;;;14.80;96.54;98982.78;5073244;28;20475;-62
2022/12/14 05:56:10;;;;;;;24.73;22.60;;;;;;;14.79;96.87;98979.16;5073305;28;20411;-60
2022/12/14 05:58:38;;;;;;;26.25;23.88;;;;;;;14.78;96.49;98963.47;5073784;28;20051;-68
2022/12/14 06:01:07;;;;;;;27.35;24.83;;;;;;;14.75;96.51;98961.38;5074364;28;20427;-67
2022/12/14 06:03:41;;;;;;;28.08;25.23;;;;;;;14.75;96.76;98969.78;5073123;28;20093;-67
2022/12/14 06:06:10;;;;;;;25.75;23.77;;;;;;;14.77;96.68;98956.22;5074266;28;20049;-68
2022/12/14 06:08:39;;;;;;;25.95;23.65;;;;;;;14.74;96.78;98951.31;5072662;28;20491;-69
2022/12/14 06:11:12;;;;;;;26.83;24.35;;;;;;;14.80;96.36;98947.09;5073219;28;20056;-67
2022/12/14 06:13:39;;;;;;;26.10;23.58;;;;;;;14.78;96.45;98949.44;5060143;28;20055;-67
2022/12/14 06:16:14;;;;;;;26.52;24.10;;;;;;;14.79;96.51;98945.44;5060776;28;20055;-65
2022/12/14 06:18:49;;;;;;;23.65;21.88;;;;;;;14.75;96.42;98943.69;5059537;28;20049;-66
2022/12/14 06:21:18;;;;;;;25.52;23.20;;;;;;;14.76;96.55;98950.94;5073420;28;20041;-68
2022/12/14 06:23:45;;;;;;;23.70;22.00;;;;;;;14.71;96.74;98943.56;5072256;28;20063;-67
2022/12/14 06:26:13;;;;;;;35.72;24.13;;;;;;;14.75;96.74;98933.25;5073017;28;20080;-68
2022/12/14 06:28:41;;;;;;;25.20;23.25;;;;;;;14.74;96.73;98928.81;5073468;28;20426;-69
2022/12/14 06:31:14;;;;;;;23.17;21.27;;;;;;;14.64;96.21;98915.22;5070802;28;20063;-71
2022/12/14 06:33:41;;;;;;;25.65;23.27;;;;;;;14.70;96.62;98927.88;5074333;28;20474;-71
2022/12/14 06:36:22;;;;;;;25.20;23.20;;;;;;;14.62;96.24;98911.91;5057091;28;20123;-70
2022/12/14 06:38:50;;;;;;;26.25;22.90;;;;;;;14.66;96.46;98921.28;5071270;28;20047;-71
2022/12/14 06:41:17;;;;;;;28.42;22.77;;;;;;;14.66;96.46;98921.28;5072510;28;20055;-66
2022/12/14 06:43:44;;;;;;;23.13;21.25;;;;;;;14.64;96.58;98932.88;5073331;28;20052;-66
2022/12/14 06:46:18;;;;;;;22.65;20.65;;;;;;;14.69;96.46;98934.66;5064310;28;20048;-67
2022/12/14 06:48:53;;;;;;;32.83;30.75;;;;;;;14.66;96.31;98926.91;5073517;28;20098;-67
2022/12/14 06:51:21;;;;;;;21.30;19.42;;;;;;;14.72;96.94;98916.28;5072470;28;20048;-65
2022/12/14 06:53:55;;;;;;;21.38;18.33;;;;;;;14.70;96.55;98908.22;5071796;28;20430;-66
2022/12/14 06:56:26;;;;;;;20.98;19.17;;;;;;;14.75;96.81;98916.41;5073949;28;20052;-66
2022/12/14 06:58:54;;;;;;;20.17;18.10;;;;;;;14.77;96.83;98914.06;5063203;28;20056;-63
2022/12/14 07:01:23;;;;;;;24.52;22.58;;;;;;;14.80;96.28;98907.75;5070957;28;20048;-65
2022/12/14 07:03:52;;;;;;;28.13;26.17;;;;;;;14.86;96.38;98916.78;5072558;28;20052;-65
2022/12/14 07:06:20;;;;;;;21.38;19.38;;;;;;;14.86;96.67;98903.53;5069440;28;20060;-61
2022/12/14 07:08:47;;;;;;;23.63;22.15;;;;;;;14.81;96.69;98912.22;5070292;28;20048;-61
2022/12/14 07:11:16;;;;;;;23.95;22.55;;;;;;;14.85;96.66;98890.66;5070546;28;20418;-62
2022/12/14 07:13:43;;;;;;;26.98;24.65;;;;;;;14.81;96.17;98902.97;5067691;28;20052;-59
2022/12/14 07:16:18;;;;;;;23.60;21.65;;;;;;;14.83;96.32;98906.22;5069208;28;20404;-61
2022/12/14 07:18:45;;;;;;;19.45;17.83;;;;;;;14.80;96.18;98862.81;5068283;28;20449;-60
2022/12/14 07:21:14;;;;;;;28.50;26.35;;;;;;;14.76;96.03;98881.50;5067750;28;20056;-60
2022/12/14 07:23:42;;;;;;;19.33;18.02;;;;;;;14.77;96.21;98891.59;5067293;28;20052;-60
2022/12/14 07:26:12;;;;;;;19.67;17.88;;;;;;;14.79;96.11;98900.47;5059594;28;20509;-60
2022/12/14 07:28:40;;;;;;;18.58;17.08;;;;;;;14.76;96.40;98891.94;5070918;28;20053;-59
2022/12/14 07:31:11;;;;;;;19.67;18.02;;;;;;;14.75;96.33;98899.53;5070763;28;20048;-60
2022/12/14 07:33:38;;;;;;;18.70;17.00;;;;;;;14.68;96.27;98899.31;5071398;28;20059;-60
2022/12/14 07:36:10;;;;;;;21.17;19.15;;;;;;;14.72;96.00;98894.63;5071213;28;20048;-60
2022/12/14 07:38:39;;;;;;;19.63;17.67;;;;;;;14.68;95.92;98902.94;5063931;28;20119;-60
2022/12/14 07:41:20;;;;;;;25.50;23.40;;;;;;;14.66;95.76;98901.63;5068493;28;20057;-61
2022/12/14 07:43:50;;;;;;;22.80;21.42;;;;;;;14.70;96.44;98885.75;5064338;28;20051;-60
2022/12/14 07:46:19;;;;;;;25.40;23.63;;;;;;;14.74;96.40;98903.53;5070020;28;20048;-60
2022/12/14 07:48:51;;;;;;;22.67;20.42;;;;;;;14.81;96.85;98897.34;5066898;28;20047;-60
2022/12/14 07:51:20;;;;;;;20.15;18.13;;;;;;;14.79;96.83;98883.63;5062021;28;20419;-60
2022/12/14 07:53:48;;;;;;;20.45;18.73;;;;;;;14.81;96.84;98892.53;5067412;28;20393;-60
2022/12/14 07:56:25;;;;;;;24.83;23.23;;;;;;;14.86;96.56;98902.72;5068295;28;20097;-61
2022/12/14 07:58:54;;;;;;;19.75;18.48;;;;;;;14.88;97.08;98897.56;5070394;28;20134;-59
2022/12/14 08:01:27;;;;;;;22.60;20.42;;;;;;;14.85;96.80;98901.91;5069096;28;20051;-62
2022/12/14 08:03:56;;;;;;;21.17;19.42;;;;;;;14.82;96.77;98888.53;5064828;28;20522;-61
2022/12/14 08:06:25;;;;;;;23.05;20.88;;;;;;;14.85;96.41;98903.91;5069406;28;20052;-60
2022/12/14 08:08:53;;;;;;;23.25;21.42;;;;;;;14.83;96.85;98895.78;5068528;28;20068;-60
2022/12/14 08:11:21;;;;;;;19.33;17.88;;;;;;;14.82;96.95;98894.16;5071278;28;20422;-62
2022/12/14 08:13:55;;;;;;;20.52;19.00;;;;;;;14.74;96.37;98883.88;5071414;28;20494;-60
2022/12/14 08:16:23;;;;;;;20.35;18.35;;;;;;;14.80;96.30;98874.03;5071426;28;20052;-60
2022/12/14 08:18:52;;;;;;;30.20;27.50;;;;;;;14.83;96.47;98890.19;5070271;28;20094;-59
2022/12/14 08:21:21;;;;;;;20.60;19.30;;;;;;;14.83;96.15;98884.56;5070889;28;20048;-61
2022/12/14 08:23:49;;;;;;;29.38;26.25;;;;;;;14.96;96.36;98879.78;5070687;28;20300;-61
2022/12/14 08:26:17;;;;;;;21.20;19.00;;;;;;;15.29;95.71;98881.66;5070725;28;20053;-60
2022/12/14 08:28:45;;;;;;;20.38;18.75;;;;;;;15.09;94.88;98877.78;5071816;28;20181;-60
2022/12/14 08:31:18;;;;;;;27.00;25.33;;;;;;;15.06;95.44;98892.53;5071460;28;20048;-61
2022/12/14 08:33:45;;;;;;;18.58;17.45;;;;;;;14.99;95.60;98881.88;5070974;28;20455;-61
2022/12/14 08:36:26;;;;;;;20.52;18.98;;;;;;;14.97;95.61;98887.03;5071118;28;20521;-60
2022/12/14 08:38:58;;;;;;;23.77;21.98;;;;;;;14.94;95.36;98893.38;5065172;28;20048;-60
2022/12/14 08:41:27;;;;;;;28.92;27.27;;;;;;;14.94;95.72;98884.94;5063357;28;20052;-59
2022/12/14 08:43:56;;;;;;;19.05;17.95;;;;;;;14.89;95.76;98868.28;5064495;28;20071;-59
2022/12/14 08:46:24;;;;;;;19.73;18.42;;;;;;;15.00;95.91;98877.06;5064137;28;20055;-60
2022/12/14 08:48:52;;;;;;;19.25;17.90;;;;;;;15.05;96.04;98874.88;5061525;28;20049;-59
2022/12/14 08:51:22;;;;;;;21.17;19.02;;;;;;;15.12;96.16;98872.28;5068817;28;20056;-59
2022/12/14 08:53:51;;;;;;;24.65;22.38;;;;;;;15.15;95.97;98874.41;5061539;28;20049;-58
2022/12/14 08:56:21;;;;;;;21.58;19.58;;;;;;;15.13;95.75;98873.09;5065873;28;20510;-59
2022/12/14 08:58:48;;;;;;;;;;;;;;;15.13;96.00;98870.28;5064328;28;20056;-60
2022/12/14 09:01:18;;;;;;;22.15;19.80;;;;;;;15.33;96.08;98877.78;5068578;28;20298;-59
2022/12/14 09:03:46;;;;;;;18.77;17.58;;;;;;;15.38;95.84;98860.66;5063088;28;20048;-60
2022/12/14 09:06:19;;;;;;;19.45;17.80;;;;;;;15.49;95.92;98868.63;5068125;28;20048;-59
2022/12/14 09:08:46;;;;;;;21.15;19.23;;;;;;;15.45;95.45;98867.66;5066333;28;20048;-59
2022/12/14 09:11:17;;;;;;;20.25;18.60;;;;;;;15.53;95.52;98884.44;5069696;28;20065;-59
2022/12/14 09:13:45;;;;;;;22.80;21.53;;;;;;;15.54;95.42;98869.19;5064873;28;20056;-60
2022/12/14 09:16:13;;;;;;;19.30;18.10;;;;;;;15.50;94.94;98884.31;5068703;28;20056;-61
2022/12/14 09:18:41;;;;;;;20.25;18.42;;;;;;;15.40;95.37;98894.88;5059689;28;20037;-60
2022/12/14 09:21:08;;;;;;;20.60;18.92;;;;;;;15.33;94.73;98860.09;5067363;28;20056;-60
2022/12/14 09:23:36;;;;;;;28.67;26.52;;;;;;;15.53;94.78;98866.75;5067711;28;20056;-61
2022/12/14 09:26:04;;;;;;;27.58;22.48;;;;;;;15.51;95.42;98875.50;5071902;28;20048;-60
2022/12/14 09:28:35;;;;;;;33.13;31.35;;;;;;;15.60;94.85;98864.94;5066586;28;20411;-61
2022/12/14 09:31:05;;;;;;;20.98;19.50;;;;;;;15.57;94.82;98862.84;5070330;28;20407;-61
2022/12/14 09:33:32;;;;;;;17.70;16.75;;;;;;;15.55;94.63;98864.38;5066179;28;20048;-61
2022/12/14 09:36:04;;;;;;;20.27;18.63;;;;;;;15.54;94.28;98868.38;5065374;28;20803;-61
2022/12/14 09:38:34;;;;;;;20.60;18.73;;;;;;;15.67;95.31;98846.69;5063850;28;20422;-61
2022/12/14 09:41:04;;;;;;;18.65;17.50;;;;;;;15.72;94.76;98858.50;5064478;28;20044;-60
2022/12/14 09:43:43;;;;;;;27.40;26.00;;;;;;;15.70;94.59;98843.97;5049521;28;20049;-60
2022/12/14 09:46:14;;;;;;;20.45;18.65;;;;;;;15.79;94.93;98853.06;5065598;28;20045;-61
2022/12/14 09:48:42;;;;;;;25.63;23.95;;;;;;;15.80;94.63;98849.09;5065976;28;20191;-60
2022/12/14 09:51:15;;;;;;;18.83;17.35;;;;;;;16.16;94.79;98849.31;5064763;28;20056;-60
2022/12/14 09:53:45;;;;;;;20.17;18.60;;;;;;;16.38;95.76;98839.47;5060418;28;20071;-60
2022/12/14 09:56:17;;;;;;;20.08;18.05;;;;;;;16.87;96.28;98844.78;5065360;28;20044;-61
2022/12/14 09:59:02;;;;;;;20.23;18.70;;;;;;;17.01;95.87;98822.56;5064532;28;20071;-61
2022/12/14 10:01:51;;;;;;;20.58;18.45;;;;;;;17.66;95.59;98841.81;5066078;28;20048;-62
2022/12/14 10:04:51;;;;;;;19.88;18.13;;;;;;;17.86;94.73;98859.63;5066302;28;20048;-61
2022/12/14 10:07:34;;;;;;;19.90;18.50;;;;;;;17.70;95.14;98854.81;5066712;28;20059;-61
2022/12/14 10:10:32;;;;;;;19.10;17.70;;;;;;;17.31;92.64;98848.28;5065290;28;20041;-61
2022/12/14 10:13:07;;;;;;;18.88;17.75;;;;;;;17.12;92.32;98849.03;5066100;28;20127;-60
2022/12/14 10:15:53;;;;;;;18.90;17.48;;;;;;;17.16;90.19;98852.78;5063336;28;20048;-60
2022/12/14 10:18:38;;;;;;;19.40;18.00;;;;;;;17.34;91.72;98847.56;5065866;28;20040;-60
2022/12/14 10:21:32;;;;;;;19.20;17.75;;;;;;;17.44;91.59;98840.53;5048193;28;20060;-61
2022/12/14 10:24:04;;;;;;;26.23;24.73;;;;;;;17.41;90.63;98844.06;5068227;28;20052;-61
2022/12/14 10:26:47;;;;;;;20.40;18.75;;;;;;;17.38;90.43;98825.06;5072494;28;20052;-60
2022/12/14 10:29:26;;;;;;;21.17;19.70;;;;;;;17.26;89.51;98840.09;5073420;28;20347;-61
2022/12/14 10:31:57;;;;;;;19.02;17.67;;;;;;;17.03;89.30;98837.13;5080980;28;20051;-60
2022/12/14 10:34:28;;;;;;;18.20;17.20;;;;;;;16.86;89.05;98838.34;5065423;28;20591;-60
2022/12/14 10:37:11;;;;;;;18.17;17.23;;;;;;;16.80;89.10;98823.69;5064218;28;20048;-61
2022/12/14 10:39:57;;;;;;;23.63;21.95;;;;;;;16.63;87.68;98807.09;5070028;28;20045;-60
2022/12/14 10:42:46;;;;;;;20.35;18.52;;;;;;;16.57;86.35;98822.66;5070865;28;20052;-60
2022/12/14 10:45:20;;;;;;;20.23;18.38;;;;;;;16.55;88.12;98810.94;5070284;28;20522;-61
2022/12/14 10:48:41;;;;;;;20.17;18.42;;;;;;;16.55;87.93;98808.13;5073387;28;20051;-60
2022/12/14 10:51:17;;;;;;;19.02;17.80;;;;;;;16.58;88.25;98798.91;5068933;28;20044;-62
2022/12/14 10:53:48;;;;;;;21.00;18.45;;;;;;;16.67;88.70;98810.00;5075070;28;20060;-61
2022/12/14 10:56:38;;;;;;;24.48;23.17;;;;;;;16.62;86.82;98807.47;5070411;28;20075;-60
2022/12/14 10:59:19;;;;;;;17.88;16.88;;;;;;;16.63;86.75;98792.19;5068502;28;20040;-61
2022/12/14 11:01:55;;;;;;;17.75;16.85;;;;;;;16.77;87.96;98790.59;5071896;28;20451;-60
2022/12/14 11:04:33;;;;;;;17.63;16.63;;;;;;;16.81;86.59;98759.66;5050337;28;20045;-62
2022/12/14 11:07:06;;;;;;;19.85;17.95;;;;;;;16.74;87.70;98780.03;5079003;28;20411;-61
2022/12/14 11:09:33;;;;;;;24.92;23.27;;;;;;;16.72;88.18;98792.84;5069065;28;20036;-60
2022/12/14 11:12:16;;;;;;;18.20;16.83;;;;;;;16.66;87.74;98783.84;5071636;28;20049;-60
2022/12/14 11:15:12;;;;;;;18.77;17.52;;;;;;;16.60;87.74;98774.00;5068403;28;20490;-61
2022/12/14 11:17:42;;;;;;;18.60;17.38;;;;;;;16.55;88.14;98765.84;5070565;28;20048;-60
2022/12/14 11:20:14;;;;;;;19.95;18.83;;;;;;;16.51;87.26;98764.91;5074591;28;20095;-60
2022/12/14 11:22:44;;;;;;;19.48;18.02;;;;;;;16.42;87.01;98739.75;5086848;28;20148;-60
2022/12/14 11:25:41;;;;;;;19.27;17.80;;;;;;;16.38;87.75;98760.59;5099002;28;20069;-61
2022/12/14 11:28:26;;;;;;;18.20;17.20;;;;;;;16.35;88.35;98740.41;5089704;28;20478;-60
2022/12/14 11:31:06;;;;;;;25.17;23.27;;;;;;;16.45;89.26;98743.84;5100069;28;20101;-61
2022/12/14 11:33:39;;;;;;;18.75;17.48;;;;;;;16.49;89.00;98751.22;5097943;28;20059;-61
2022/12/14 11:36:07;;;;;;;19.20;17.73;;;;;;;16.45;89.08;98749.50;5095249;28;20413;-61
2022/12/14 11:38:35;;;;;;;19.40;18.17;;;;;;;16.43;89.13;98749.84;5089391;28;20161;-61
2022/12/14 11:41:03;;;;;;;19.30;17.77;;;;;;;16.45;89.14;98755.13;5094613;28;20162;-61
2022/12/14 11:43:37;;;;;;;20.35;18.58;;;;;;;16.31;89.53;98716.16;5092729;28;20067;-61
2022/12/14 11:46:05;;;;;;;18.45;17.08;;;;;;;16.42;89.54;98724.84;5096094;28;20667;-60
2022/12/14 11:48:37;;;;;;;22.02;20.35;;;;;;;16.37;88.42;98719.50;5096711;28;20110;-60
2022/12/14 11:51:10;;;;;;;27.50;25.77;;;;;;;16.33;88.38;98697.69;5096944;28;20096;-61
2022/12/14 11:53:37;;;;;;;22.45;21.15;;;;;;;16.41;88.38;98728.84;5092627;27;20059;-60
2022/12/14 11:56:07;;;;;;;19.75;18.13;;;;;;;16.33;88.16;98706.13;5097257;28;20048;-60
2022/12/14 11:58:47;;;;;;;18.30;17.40;;;;;;;16.33;88.13;98711.75;5081962;28;20056;-60